• Join FlightAware (Why Join?)
  • Login
  • US Flag 
12:26PM EDT


 

Airport Tracker/Info


-or-


 

Live Flight TrackerFlight Track Log ✈ MSR967 ✈ 16-May-2013 ✈ OMSJ / SHJ - HECA / CAI

Flight Track Log - Related Links

Times and Time Zones

All times are in EDT time to prevent confusion due to time zone crossing. See the MSR967 flight status page for this flight to view local times or setup timezone preferences in your user account.

Time Position Orientation Groundspeed Altitude Reporting Facility
EDT Latitude Longitude Course Direction KTS MPH feet Rate Location/Type
05:24PM 25.3380 55.4860 302° West 179 206 1,600  Level FlightAware
05:25PM 25.3490 55.4670 303° West 183 211 2,200 1,200 Climbing FlightAware
05:25PM 25.3660 55.4390 304° West 221 254 2,700 1,980 Climbing FlightAware
05:26PM 25.3870 55.4030 303° West 219 252 4,200 2,100 Climbing FlightAware
05:26PM 25.4030 55.3740 301° West 245 282 4,800 1,380 Climbing FlightAware
05:27PM 25.4170 55.3500 303° West 247 284 5,500 2,160 Climbing FlightAware
05:27PM 25.4360 55.3170 303° West 263 303 6,600 2,220 Climbing FlightAware
05:27PM 25.4400 55.2980 283° West 264 304 7,000 900 Climbing FlightAware
05:28PM 25.4340 55.2620 260° West 261 300 7,300 180 Climbing FlightAware
05:28PM 25.4260 55.2220 258° West 264 304 7,200 -120 Descending FlightAware
05:29PM 25.4190 55.1880 257° West 266 306 7,200  Level FlightAware
05:29PM 25.4110 55.1470 258° West 268 308 7,200 180 Level FlightAware
05:30PM 25.4010 55.1000 257° West 313 360 7,400 840 Climbing FlightAware
05:30PM 25.3940 55.0660 257° West 327 376 8,000 1,920 Climbing FlightAware
05:31PM 25.3820 55.0110 256° West 331 381 9,200 2,040 Climbing FlightAware
05:31PM 25.3740 54.9750 256° West 339 390 9,900 1,800 Climbing FlightAware
05:32PM 25.3560 54.8910 257° West 355 409 11,300 1,440 Climbing FlightAware
05:32PM 25.3610 54.8480 277° West 367 422 11,600 1,020 Climbing FlightAware
05:33PM 25.3830 54.7610 286° West 391 450 12,500 1,200 Climbing FlightAware
05:34PM 25.4030 54.6810 285° West 409 471 13,300 1,320 Climbing FlightAware
05:34PM 25.4240 54.5980 286° West 420 483 14,300 1,440 Climbing FlightAware
05:35PM 25.4500 54.4930 285° West 431 496 15,500 1,380 Climbing FlightAware
05:36PM 25.4710 54.4060 285° West 441 507 16,400 1,380 Climbing FlightAware
05:36PM 25.4920 54.3200 285° West 444 511 17,400 1,380 Climbing FlightAware
05:37PM 25.5170 54.2200 286° West 450 518 18,400 1,320 Climbing FlightAware
05:38PM 25.5390 54.1310 285° West 454 522 19,300 1,740 Climbing FlightAware
05:39PM 25.5630 54.0340 285° West 440 506 20,900 1,680 Climbing FlightAware
05:39PM 25.5840 53.9460 285° West 443 510 21,700 1,080 Climbing FlightAware
05:40PM 25.6050 53.8580 285° West 445 512 22,400 1,200 Climbing FlightAware
05:41PM 25.6290 53.7600 285° West 442 509 23,400 1,200 Climbing FlightAware
05:41PM 25.6500 53.6710 285° West 443 510 24,100 960 Climbing FlightAware
05:42PM 25.6710 53.5840 285° West 445 512 24,700 660 Climbing FlightAware
05:43PM 25.6870 53.5170 285° West 452 520 24,900 720 Climbing FlightAware
05:43PM 25.7120 53.4150 285° West 451 519 25,600 780 Climbing FlightAware
05:44PM 25.7290 53.3440 285° West 453 521 26,000 780 Climbing FlightAware
05:45PM 25.7480 53.2330 281° West 453 521 26,700 900 Climbing FlightAware
05:45PM 25.7580 53.1310 276° West 453 521 27,400 900 Climbing FlightAware
05:46PM 25.7690 53.0400 278° West 453 521 28,000 720 Climbing FlightAware
05:47PM 25.7850 52.9330 279° West 459 528 28,500 1,260 Climbing FlightAware
05:47PM 25.7980 52.8440 279° West 441 507 29,800 2,160 Climbing FlightAware
05:48PM 25.8110 52.7530 279° West 415 478 31,400 1,500 Climbing FlightAware
05:49PM 25.8240 52.6630 279° West 414 476 32,000 420 Climbing FlightAware
05:50PM 25.8360 52.5760 279° West 425 489 32,000  Level FlightAware
05:50PM 25.8570 52.4760 283° West 429 494 32,000  Level FlightAware
05:51PM 25.8870 52.3950 292° West 430 495 32,000  Level FlightAware
05:52PM 25.9250 52.3170 298° West 430 495 32,000  Level FlightAware
05:52PM 25.9670 52.2290 298° West 431 496 32,000  Level FlightAware
05:53PM 26.0010 52.1610 299° West 432 497 32,000  Level FlightAware
05:53PM 26.0240 52.1110 297° West 432 497 32,000  Level FlightAware
05:54PM 26.0620 52.0340 299° West 433 498 32,000  Level FlightAware
05:55PM 26.1020 51.9510 298° West 433 498 32,000  Level FlightAware
05:56PM 26.1750 51.7990 298° West 431 496 32,000  Level FlightAware
05:57PM 26.2100 51.7200 296° West 433 498 32,000  Level FlightAware
05:57PM 26.2500 51.6310 297° West 432 497 32,000  Level FlightAware
05:58PM 26.2870 51.5510 297° West 432 497 32,000  Level FlightAware
05:59PM 26.3230 51.4710 297° West 432 497 32,000  Level FlightAware
06:00PM 26.3630 51.3800 296° West 430 495 32,000  Level FlightAware
06:00PM 26.3950 51.3000 294° West 430 495 32,000  Level FlightAware
06:01PM 26.4320 51.2090 294° West 431 496 32,000  Level FlightAware
06:02PM 26.4660 51.1260 295° West 429 494 32,000  Level FlightAware
06:02PM 26.5020 51.0350 294° West 429 494 32,000  Level FlightAware
06:03PM 26.5350 50.9540 294° West 424 488 32,000  Level FlightAware
06:04PM 26.5630 50.8720 291° West 424 488 32,000  Level FlightAware
06:04PM 26.5950 50.7790 291° West 422 486 32,000  Level FlightAware
06:05PM 26.6220 50.6990 291° West 425 489 32,000  Level FlightAware
06:06PM 26.6510 50.6120 290° West 424 488 32,000  Level FlightAware
06:07PM 26.6790 50.5290 291° West 424 488 32,000  Level FlightAware
06:07PM 26.7010 50.4590 289° West 424 488 32,000  Level FlightAware
06:08PM 26.7240 50.3890 290° West 424 488 32,000  Level FlightAware
06:09PM 26.7470 50.3190 290° West 424 488 32,000  Level FlightAware
06:09PM 26.7700 50.2480 290° West 424 488 32,000  Level FlightAware
06:10PM 26.7490 50.1490 257° West 415 478 32,000  Level FlightAware
06:10PM 26.7450 50.0790 266° West 415 478 32,000  Level FlightAware
06:11PM 26.7410 49.9880 267° West 415 478 32,000  Level FlightAware
06:12PM 26.7380 49.9150 267° West 415 478 32,000  Level FlightAware
06:12PM 26.7340 49.8420 267° West 415 478 32,000  Level FlightAware
06:13PM 26.7310 49.7690 267° West 415 478 32,000  Level FlightAware
06:14PM 26.7310 49.6220 270° West 32,000  Level FlightAware
06:14PM 26.7270 49.5290 267° West 411 473 32,000  Level FlightAware
06:15PM 26.7240 49.4370 268° West 410 472 32,000  Level FlightAware
06:16PM 26.7200 49.3440 267° West 409 471 32,000  Level FlightAware
06:17PM 26.7150 49.2280 267° West 409 471 32,000  Level FlightAware
06:17PM 26.7120 49.1380 268° West 409 471 32,000  Level FlightAware
06:18PM 26.7080 49.0440 267° West 407 468 32,000  Level FlightAware
06:19PM 26.7050 48.9600 268° West 405 466 32,000  Level FlightAware
06:20PM 26.7010 48.8750 267° West 406 467 32,000  Level FlightAware
06:20PM 26.6970 48.7820 267° West 407 468 32,000  Level FlightAware
06:21PM 26.6930 48.6970 267° West 408 470 32,000  Level FlightAware
06:22PM 26.6900 48.6120 268° West 409 471 32,000  Level FlightAware
06:22PM 26.6860 48.5190 267° West 408 470 32,000  Level FlightAware
06:23PM 26.6820 48.4330 267° West 408 470 32,000  Level FlightAware
06:24PM 26.6780 48.3380 267° West 408 470 32,000  Level FlightAware
06:24PM 26.6740 48.2550 267° West 408 470 32,000  Level FlightAware
06:25PM 26.6700 48.1690 267° West 410 472 32,000  Level FlightAware
06:26PM 26.6650 48.0740 267° West 409 471 32,000  Level FlightAware
06:27PM 26.6650 47.9590 270° West 412 474 32,000  Level FlightAware
06:28PM 26.6790 47.8630 279° West 414 476 32,000  Level FlightAware
06:28PM 26.6920 47.7790 280° West 415 478 32,000  Level FlightAware
06:29PM 26.7050 47.6930 280° West 419 482 32,000  Level FlightAware
06:30PM 26.7200 47.5970 280° West 421 484 32,000  Level FlightAware
06:30PM 26.7330 47.5110 280° West 424 488 32,000  Level FlightAware
06:31PM 26.7480 47.4140 280° West 425 489 32,000  Level FlightAware
06:32PM 26.7620 47.3270 280° West 424 488 32,000  Level FlightAware
06:32PM 26.7750 47.2400 280° West 423 487 32,000  Level FlightAware
06:33PM 26.7900 47.1430 280° West 421 484 32,000  Level FlightAware
06:34PM 26.8030 47.0560 280° West 421 484 32,000  Level FlightAware
06:34PM 26.8160 46.9700 280° West 422 486 32,000  Level FlightAware
06:35PM 26.8260 46.9070 280° West 423 487 32,000  Level FlightAware
06:36PM 26.8410 46.8080 280° West 424 488 32,000  Level FlightAware
06:36PM 26.8530 46.7230 279° West 425 489 32,000  Level FlightAware
06:37PM 26.8680 46.6240 280° West 423 487 32,000  Level FlightAware
06:38PM 26.8810 46.5380 280° West 424 488 32,000  Level FlightAware
06:38PM 26.8940 46.4510 280° West 424 488 32,000  Level FlightAware
06:39PM 26.9080 46.3540 279° West 422 486 32,000  Level FlightAware
06:40PM 26.9210 46.2710 280° West 418 481 32,000  Level FlightAware
06:41PM 26.9340 46.1830 279° West 414 476 32,000  Level FlightAware
06:41PM 26.9480 46.0870 279° West 411 473 32,000  Level FlightAware
06:42PM 26.9600 46.0050 279° West 409 471 32,000  Level FlightAware
06:43PM 26.9740 45.9110 280° West 406 467 32,000  Level FlightAware
06:43PM 26.9860 45.8270 279° West 404 465 32,000  Level FlightAware
06:44PM 26.9990 45.7360 279° West 404 465 32,000  Level FlightAware
06:45PM 27.0110 45.6520 279° West 402 463 32,000  Level FlightAware
06:45PM 27.0230 45.5700 279° West 400 460 32,000  Level FlightAware
06:46PM 27.0360 45.4800 279° West 397 457 32,000  Level FlightAware
06:47PM 27.0470 45.3990 279° West 398 458 32,000  Level FlightAware
06:47PM 27.0540 45.3330 277° West 401 461 32,000  Level FlightAware
06:48PM 27.0650 45.2300 277° West 404 465 32,000  Level FlightAware
06:49PM 27.0730 45.1590 277° West 404 465 32,000  Level FlightAware
06:50PM 27.0810 45.0890 277° West 404 465 32,000  Level FlightAware
06:50PM 27.0890 45.0180 277° West 404 465 32,000  Level FlightAware
06:51PM 27.0980 44.9290 277° West 404 465 32,000  Level FlightAware
06:52PM 27.1060 44.8580 277° West 404 465 32,000  Level FlightAware
06:52PM 27.1140 44.7870 277° West 404 465 32,000  Level FlightAware
06:53PM 27.1210 44.7170 276° West 404 465 32,000  Level FlightAware
06:54PM 27.1290 44.6460 277° West 404 465 32,000  Level FlightAware
06:54PM 27.1370 44.5750 277° West 404 465 32,000  Level FlightAware
06:55PM 27.1470 44.4860 277° West 404 465 32,000  Level FlightAware
06:56PM 27.1540 44.4150 276° West 404 465 32,000  Level FlightAware
06:57PM 27.1620 44.3440 277° West 404 465 32,000  Level FlightAware
06:57PM 27.1700 44.2740 277° West 404 465 32,000 -300 Level FlightAware
07:00PM 27.2427 44.0167 288° West  Level Estimated
07:01PM 27.2756 43.8996 288° West  Level Estimated
07:02PM 27.3084 43.7824 288° West  Level Estimated
07:03PM 27.3411 43.6652 287° West  Level Estimated
07:04PM 27.3737 43.5479 287° West  Level Estimated
07:05PM 27.4062 43.4306 287° West  Level Estimated
07:06PM 27.4386 43.3131 287° West  Level Estimated
07:07PM 27.4709 43.1956 287° West  Level Estimated
07:08PM 27.5031 43.0781 287° West  Level Estimated
07:09PM 27.5352 42.9604 287° West  Level Estimated
07:10PM 27.5673 42.8427 287° West  Level Estimated
07:11PM 27.5992 42.7249 287° West  Level Estimated
07:12PM 27.6310 42.6071 287° West  Level Estimated
07:13PM 27.6627 42.4892 287° West  Level Estimated
07:14PM 27.6943 42.3712 287° West  Level Estimated
07:15PM 27.7258 42.2532 287° West  Level Estimated
07:16PM 27.7572 42.1351 287° West  Level Estimated
07:17PM 27.7885 42.0169 287° West  Level Estimated
07:18PM 27.8197 41.8986 287° West  Level Estimated
07:19PM 27.8508 41.7803 287° West  Level Estimated
07:20PM 27.8819 41.6619 287° West  Level Estimated
07:21PM 27.9128 41.5435 286° West  Level Estimated
07:22PM 27.9436 41.4249 286° West  Level Estimated
07:23PM 27.9743 41.3064 286° West  Level Estimated
07:24PM 28.0049 41.1877 286° West  Level Estimated
07:25PM 28.0354 41.0690 286° West  Level Estimated
07:26PM 28.0658 40.9502 286° West  Level Estimated
07:27PM 28.0961 40.8313 286° West  Level Estimated
07:28PM 28.1263 40.7124 286° West  Level Estimated
07:29PM 28.1564 40.5934 286° West  Level Estimated
07:30PM 28.1864 40.4743 286° West  Level Estimated
07:31PM 28.2162 40.3552 286° West  Level Estimated
07:32PM 28.2460 40.2360 286° West  Level Estimated
07:33PM 28.2757 40.1168 286° West  Level Estimated
07:34PM 28.3053 39.9974 286° West  Level Estimated
07:35PM 28.3348 39.8781 286° West  Level Estimated
07:36PM 28.3641 39.7586 286° West  Level Estimated
07:37PM 28.3934 39.6391 286° West  Level Estimated
07:38PM 28.4226 39.5195 286° West  Level Estimated
07:39PM 28.4516 39.3998 285° West  Level Estimated
07:40PM 28.4806 39.2801 285° West  Level Estimated
07:41PM 28.5094 39.1603 285° West  Level Estimated
07:42PM 28.5381 39.0405 285° West  Level Estimated
07:43PM 28.5668 38.9205 285° West  Level Estimated
07:44PM 28.5953 38.8006 285° West  Level Estimated
07:45PM 28.6237 38.6805 285° West  Level Estimated
07:46PM 28.6520 38.5604 285° West  Level Estimated
07:47PM 28.6803 38.4402 285° West  Level Estimated
07:48PM 28.7084 38.3200 285° West  Level Estimated
07:49PM 28.7364 38.1997 285° West  Level Estimated
07:50PM 28.7642 38.0793 285° West  Level Estimated
07:51PM 28.7920 37.9589 285° West  Level Estimated
07:52PM 28.8197 37.8384 285° West  Level Estimated
07:53PM 28.8473 37.7178 285° West  Level Estimated
07:54PM 28.8748 37.5972 285° West  Level Estimated
07:55PM 28.9021 37.4765 285° West  Level Estimated
07:56PM 28.9294 37.3557 284° West  Level Estimated
07:57PM 28.9565 37.2349 284° West  Level Estimated
07:58PM 28.9835 37.1140 284° West  Level Estimated
07:59PM 29.0105 36.9931 284° West  Level Estimated
08:00PM 29.0373 36.8721 284° West  Level Estimated
08:01PM 29.0640 36.7510 284° West  Level Estimated
08:02PM 29.0906 36.6299 284° West  Level Estimated
08:03PM 29.1171 36.5087 284° West  Level Estimated
08:04PM 29.1435 36.3874 284° West  Level Estimated
08:05PM 29.1697 36.2661 284° West  Level Estimated
08:06PM 29.1959 36.1447 284° West  Level Estimated
08:07PM 29.2219 36.0233 284° West  Level Estimated
08:08PM 29.2479 35.9018 284° West  Level Estimated
08:09PM 29.2737 35.7802 284° West  Level Estimated
08:10PM 29.2994 35.6586 284° West  Level Estimated
08:11PM 29.3251 35.5369 284° West  Level Estimated
08:12PM 29.3505 35.4152 284° West  Level Estimated
08:13PM 29.3759 35.2934 283° West  Level Estimated
08:14PM 29.4012 35.1715 283° West  Level Estimated
08:15PM 29.4264 35.0495 283° West  Level Estimated
08:16PM 29.4515 34.9276 283° West  Level Estimated
08:17PM 29.4764 34.8055 283° West  Level Estimated
08:18PM 29.5012 34.6834 283° West  Level Estimated
08:19PM 29.5260 34.5612 283° West  Level Estimated
08:20PM 29.5506 34.4390 283° West  Level Estimated
08:21PM 29.5751 34.3167 283° West  Level Estimated
08:22PM 29.5995 34.1944 283° West  Level Estimated
08:23PM 29.6238 34.0719 283° West  Level Estimated
08:24PM 29.6479 33.9495 283° West  Level Estimated
08:25PM 29.6720 33.8270 283° West  Level Estimated
08:26PM 29.6959 33.7044 283° West  Level Estimated
08:27PM 29.7197 33.5817 283° West  Level Estimated
08:28PM 29.7435 33.4590 283° West  Level Estimated
08:29PM 29.7671 33.3363 283° West  Level Estimated
08:30PM 29.7906 33.2135 282° West  Level Estimated
08:31PM 29.8139 33.0906 282° West  Level Estimated
08:32PM 29.8372 32.9677 282° West  Level Estimated
08:33PM 29.8603 32.8447 282° West  Level Estimated
08:34PM 29.8834 32.7216 282° West  Level Estimated
08:35PM 29.9063 32.5985 282° West  Level Estimated
08:36PM 29.9291 32.4753 282° West  Level Estimated
08:37PM 29.9518 32.3521 282° West  Level Estimated
08:38PM 29.9744 32.2289 282° West  Level Estimated
08:39PM 29.9968 32.1055 282° West  Level Estimated
08:40PM 30.0192 31.9822 282° West  Level Estimated
08:41PM 30.0414 31.8587 282° West  Level Estimated
08:42PM 30.0635 31.7352 282° West  Level Estimated
08:43PM 30.0855 31.6117 282° West  Level Estimated
08:44PM 30.1074 31.4881 282° West  Level Estimated
08:45PM 30.1219 31.4056 282° West  Level Estimated
08:46PM 30.1219 31.4056 319° Northwest  Level Estimated
08:47PM 30.1219 31.4056 319° Northwest  Level Estimated
08:48PM 30.1219 31.4056 319° Northwest  Level Estimated
08:49PM 30.1219 31.4056 319° Northwest  Level Estimated
08:50PM 30.1219 31.4056 319° Northwest  Level Estimated
08:51PM 30.1219 31.4056 319° Northwest  Level Estimated
08:52PM 30.1219 31.4056 319° Northwest  Level Estimated
08:52PM 29.9700 31.2870 319° Northwest 181 208 2,500  Level FlightAware
08:53PM 30.1219 31.4056 319° Northwest  Level Estimated
08:53PM 29.9890 31.3120 49° Northeast 181 208 2,500  Level FlightAware
08:53PM 30.0020 31.3290 49° Northeast 181 208 2,500 -360 Level FlightAware
08:54PM 30.0370 31.3770 50° Northeast 181 208 1,900 -480 Descending FlightAware
08:57PM 30.1219 31.4056 16° North  Level Estimated
08:58PM 30.1219 31.4056 319° Northwest  Level Estimated
08:59PM 30.1219 31.4056 319° Northwest  Level Estimated
09:00PM 30.1219 31.4056 319° Northwest  Level Estimated